createdAt,value
2022-11-27T00:00:03.000Z,1019.441856
2022-11-27T00:00:38.000Z,1019.441856
2022-11-27T00:01:00.000Z,1019.3402639999999
2022-11-27T00:01:23.000Z,1019.3402639999999
2022-11-27T00:01:58.000Z,1019.3402639999999
2022-11-27T00:02:28.000Z,1019.441856
2022-11-27T00:03:03.000Z,1019.441856
2022-11-27T00:03:33.000Z,1019.441856
2022-11-27T00:04:03.000Z,1019.2386720000001
2022-11-27T00:04:38.000Z,1019.2386720000001
2022-11-27T00:05:00.000Z,1019.13708
2022-11-27T00:05:23.000Z,1019.13708
2022-11-27T00:06:08.000Z,1019.13708
2022-11-27T00:06:31.000Z,1019.13708
2022-11-27T00:07:03.000Z,1019.2386720000001
2022-11-27T00:07:33.000Z,1019.2386720000001
2022-11-27T00:08:03.000Z,1019.035488
2022-11-27T00:08:38.000Z,1019.035488
2022-11-27T00:09:00.000Z,1019.3402639999999
2022-11-27T00:09:23.000Z,1019.3402639999999
2022-11-27T00:09:58.000Z,1019.3402639999999
2022-11-27T00:10:28.000Z,1019.2386720000001
2022-11-27T00:11:03.000Z,1019.3402639999999
2022-11-27T00:11:33.000Z,1019.3402639999999
2022-11-27T00:12:03.000Z,1019.13708
2022-11-27T00:12:38.000Z,1019.13708
2022-11-27T00:13:00.000Z,1019.3402639999999
2022-11-27T00:13:24.000Z,1019.3402639999999
2022-11-27T00:13:58.000Z,1019.3402639999999
2022-11-27T00:14:28.000Z,1019.3402639999999
2022-11-27T00:15:03.000Z,1019.2386720000001
2022-11-27T00:15:33.000Z,1019.2386720000001
2022-11-27T00:16:03.000Z,1019.13708
2022-11-27T00:16:38.000Z,1019.13708
2022-11-27T00:17:00.000Z,1019.3402639999999
2022-11-27T00:17:23.000Z,1019.3402639999999
2022-11-27T00:17:58.000Z,1019.3402639999999
2022-11-27T00:18:28.000Z,1019.2386720000001
2022-11-27T00:19:03.000Z,1019.2386720000001
2022-11-27T00:19:33.000Z,1019.2386720000001
2022-11-27T00:20:03.000Z,1019.3402639999999
2022-11-27T00:20:38.000Z,1019.3402639999999
2022-11-27T00:21:00.000Z,1018.933896
2022-11-27T00:21:23.000Z,1018.933896
2022-11-27T00:21:58.000Z,1018.933896
2022-11-27T00:22:28.000Z,1019.035488
2022-11-27T00:23:03.000Z,1019.13708
2022-11-27T00:23:33.000Z,1019.13708
2022-11-27T00:24:03.000Z,1019.13708
2022-11-27T00:24:38.000Z,1019.13708
2022-11-27T00:25:00.000Z,1019.2386720000001
2022-11-27T00:25:23.000Z,1019.2386720000001
2022-11-27T00:25:58.000Z,1019.2386720000001
2022-11-27T00:26:38.000Z,1019.2386720000001
2022-11-27T00:27:04.000Z,1019.2386720000001
2022-11-27T00:27:35.000Z,1019.2386720000001
2022-11-27T00:28:03.000Z,1019.13708
2022-11-27T00:28:38.000Z,1019.13708
2022-11-27T00:29:01.000Z,1019.13708
2022-11-27T00:29:24.000Z,1019.13708
2022-11-27T00:29:58.000Z,1019.13708
2022-11-27T00:30:28.000Z,1019.13708
2022-11-27T00:31:03.000Z,1019.2386720000001
2022-11-27T00:31:33.000Z,1019.2386720000001
2022-11-27T00:32:03.000Z,1019.2386720000001
2022-11-27T00:32:38.000Z,1019.2386720000001
2022-11-27T00:33:00.000Z,1019.13708
2022-11-27T00:33:23.000Z,1019.13708
2022-11-27T00:33:58.000Z,1019.13708
2022-11-27T00:34:28.000Z,1019.035488
2022-11-27T00:35:03.000Z,1019.13708
2022-11-27T00:35:35.000Z,1019.13708
2022-11-27T00:35:58.000Z,1018.933896
2022-11-27T00:36:24.000Z,1018.933896
2022-11-27T00:36:50.000Z,1018.933896
2022-11-27T00:37:18.000Z,1018.7307119999999
2022-11-27T00:37:44.000Z,1018.7307119999999
2022-11-27T00:38:08.000Z,1019.035488
2022-11-27T00:38:28.000Z,1019.035488
2022-11-27T00:39:03.000Z,1018.832304
2022-11-27T00:39:33.000Z,1018.832304
2022-11-27T00:40:03.000Z,1019.035488
2022-11-27T00:40:38.000Z,1019.035488
2022-11-27T00:41:00.000Z,1018.933896
2022-11-27T00:41:23.000Z,1018.933896
2022-11-27T00:41:58.000Z,1018.933896
2022-11-27T00:42:28.000Z,1018.7307119999999
2022-11-27T00:43:03.000Z,1018.832304
2022-11-27T00:43:33.000Z,1018.832304
2022-11-27T00:44:03.000Z,1019.035488
2022-11-27T00:44:48.000Z,1019.035488
2022-11-27T00:45:18.000Z,1018.832304
2022-11-27T00:45:44.000Z,1018.832304
2022-11-27T00:46:08.000Z,1018.933896
2022-11-27T00:46:31.000Z,1018.933896
2022-11-27T00:47:03.000Z,1018.933896
2022-11-27T00:47:33.000Z,1018.933896
2022-11-27T00:48:03.000Z,1018.7307119999999
2022-11-27T00:48:38.000Z,1018.7307119999999
2022-11-27T00:49:00.000Z,1018.7307119999999
2022-11-27T00:49:23.000Z,1018.7307119999999
2022-11-27T00:49:58.000Z,1018.7307119999999
2022-11-27T00:50:28.000Z,1018.832304
2022-11-27T00:51:03.000Z,1018.7307119999999
2022-11-27T00:51:33.000Z,1018.7307119999999
2022-11-27T00:52:03.000Z,1018.832304
2022-11-27T00:52:38.000Z,1018.832304
2022-11-27T00:53:00.000Z,1018.7307119999999
2022-11-27T00:53:24.000Z,1018.7307119999999
2022-11-27T00:53:58.000Z,1018.7307119999999
2022-11-27T00:54:28.000Z,1018.7307119999999
2022-11-27T00:55:03.000Z,1018.832304
2022-11-27T00:55:33.000Z,1018.832304
2022-11-27T00:56:03.000Z,1018.832304
2022-11-27T00:56:38.000Z,1018.832304
2022-11-27T00:57:00.000Z,1018.832304
2022-11-27T00:57:23.000Z,1018.832304
2022-11-27T00:57:58.000Z,1018.832304
2022-11-27T00:58:28.000Z,1018.5275280000001
2022-11-27T00:59:04.000Z,1018.7307119999999
2022-11-27T00:59:34.000Z,1018.7307119999999
2022-11-27T01:00:03.000Z,1018.7307119999999
2022-11-27T01:00:48.000Z,1018.7307119999999
2022-11-27T01:01:08.000Z,1018.832304
2022-11-27T01:01:43.000Z,1018.832304
2022-11-27T01:02:11.000Z,1018.62912
2022-11-27T01:02:43.000Z,1018.62912
2022-11-27T01:03:19.000Z,1018.7307119999999
2022-11-27T01:03:48.000Z,1018.7307119999999
2022-11-27T01:04:18.000Z,1018.832304
2022-11-27T01:04:39.000Z,1018.832304
2022-11-27T01:05:00.000Z,1018.7307119999999
2022-11-27T01:05:23.000Z,1018.7307119999999
2022-11-27T01:05:59.000Z,1018.7307119999999
2022-11-27T01:06:28.000Z,1018.4259360000001
2022-11-27T01:07:03.000Z,1018.832304
2022-11-27T01:07:35.000Z,1018.832304
2022-11-27T01:07:58.000Z,1018.7307119999999
2022-11-27T01:08:24.000Z,1018.7307119999999
2022-11-27T01:08:53.000Z,1018.7307119999999
2022-11-27T01:09:23.000Z,1018.7307119999999
2022-11-27T01:09:58.000Z,1018.7307119999999
2022-11-27T01:10:28.000Z,1018.7307119999999
2022-11-27T01:11:03.000Z,1018.7307119999999
2022-11-27T01:11:33.000Z,1018.7307119999999
2022-11-27T01:12:03.000Z,1018.7307119999999
2022-11-27T01:12:38.000Z,1018.7307119999999
2022-11-27T01:13:00.000Z,1018.62912
2022-11-27T01:13:23.000Z,1018.62912
2022-11-27T01:13:58.000Z,1018.62912
2022-11-27T01:14:28.000Z,1018.7307119999999
2022-11-27T01:15:03.000Z,1018.933896
2022-11-27T01:15:33.000Z,1018.933896
2022-11-27T01:16:03.000Z,1018.7307119999999
2022-11-27T01:16:39.000Z,1018.7307119999999
2022-11-27T01:17:00.000Z,1018.832304
2022-11-27T01:17:23.000Z,1018.832304
2022-11-27T01:17:54.000Z,1018.832304
2022-11-27T01:18:10.000Z,1018.7307119999999
2022-11-27T01:18:28.000Z,1018.7307119999999
2022-11-27T01:19:04.000Z,1018.7307119999999
2022-11-27T01:19:33.000Z,1018.7307119999999
2022-11-27T01:20:03.000Z,1018.832304
2022-11-27T01:20:38.000Z,1018.832304
2022-11-27T01:21:00.000Z,1018.7307119999999
2022-11-27T01:21:23.000Z,1018.7307119999999
2022-11-27T01:22:00.000Z,1018.7307119999999
2022-11-27T01:22:28.000Z,1018.5275280000001
2022-11-27T01:23:03.000Z,1018.933896
2022-11-27T01:23:33.000Z,1018.933896
2022-11-27T01:24:03.000Z,1018.7307119999999
2022-11-27T01:24:39.000Z,1018.7307119999999
2022-11-27T01:25:00.000Z,1018.7307119999999
2022-11-27T01:25:23.000Z,1018.7307119999999
2022-11-27T01:25:58.000Z,1018.7307119999999
2022-11-27T01:26:28.000Z,1018.7307119999999
2022-11-27T01:27:03.000Z,1018.7307119999999
2022-11-27T01:27:33.000Z,1018.7307119999999
2022-11-27T01:28:03.000Z,1018.7307119999999
2022-11-27T01:28:38.000Z,1018.7307119999999
2022-11-27T01:29:01.000Z,1018.62912
2022-11-27T01:29:28.000Z,1018.62912
2022-11-27T01:30:08.000Z,1018.62912
2022-11-27T01:30:31.000Z,1018.62912
2022-11-27T01:31:06.000Z,1018.832304
2022-11-27T01:31:33.000Z,1018.832304
2022-11-27T01:31:58.000Z,1018.62912
2022-11-27T01:32:24.000Z,1018.62912
2022-11-27T01:32:50.000Z,1018.62912
2022-11-27T01:33:18.000Z,1018.7307119999999
2022-11-27T01:33:44.000Z,1018.7307119999999
2022-11-27T01:34:08.000Z,1018.5275280000001
2022-11-27T01:34:31.000Z,1018.5275280000001
2022-11-27T01:35:06.000Z,1018.832304
2022-11-27T01:35:33.000Z,1018.832304
2022-11-27T01:36:04.000Z,1018.832304
2022-11-27T01:36:39.000Z,1018.832304
2022-11-27T01:37:00.000Z,1018.62912
2022-11-27T01:37:23.000Z,1018.62912
2022-11-27T01:37:58.000Z,1018.62912
2022-11-27T01:38:28.000Z,1018.7307119999999
2022-11-27T01:39:03.000Z,1018.832304
2022-11-27T01:39:33.000Z,1018.832304
2022-11-27T01:40:03.000Z,1018.832304
2022-11-27T01:40:39.000Z,1018.832304
2022-11-27T01:41:00.000Z,1018.324344
2022-11-27T01:41:23.000Z,1018.324344
2022-11-27T01:41:59.000Z,1018.324344
2022-11-27T01:42:26.000Z,1018.5275280000001
2022-11-27T01:42:53.000Z,1018.5275280000001
2022-11-27T01:43:18.000Z,1018.4259360000001
2022-11-27T01:43:48.000Z,1018.4259360000001
2022-11-27T01:44:18.000Z,1018.5275280000001
2022-11-27T01:44:39.000Z,1018.5275280000001
2022-11-27T01:45:00.000Z,1018.4259360000001
2022-11-27T01:45:23.000Z,1018.4259360000001
2022-11-27T01:45:58.000Z,1018.4259360000001
2022-11-27T01:46:28.000Z,1018.5275280000001
2022-11-27T01:47:03.000Z,1018.62912
2022-11-27T01:47:33.000Z,1018.62912
2022-11-27T01:48:03.000Z,1018.5275280000001
2022-11-27T01:48:39.000Z,1018.5275280000001
2022-11-27T01:49:00.000Z,1018.5275280000001
2022-11-27T01:49:33.000Z,1018.5275280000001
2022-11-27T01:49:59.000Z,1018.5275280000001
2022-11-27T01:50:28.000Z,1018.4259360000001
2022-11-27T01:51:03.000Z,1018.62912
2022-11-27T01:51:34.000Z,1018.62912
2022-11-27T01:52:03.000Z,1018.62912
2022-11-27T01:52:38.000Z,1018.62912
2022-11-27T01:53:00.000Z,1018.5275280000001
2022-11-27T01:53:23.000Z,1018.5275280000001
2022-11-27T01:53:59.000Z,1018.5275280000001
2022-11-27T01:54:28.000Z,1018.4259360000001
2022-11-27T01:55:03.000Z,1018.4259360000001
2022-11-27T01:55:34.000Z,1018.4259360000001
2022-11-27T01:56:04.000Z,1018.4259360000001
2022-11-27T01:56:38.000Z,1018.4259360000001
2022-11-27T01:57:03.000Z,1018.62912
2022-11-27T01:57:26.000Z,1018.62912
2022-11-27T01:57:54.000Z,1018.62912
2022-11-27T01:58:28.000Z,1018.324344
2022-11-27T01:59:13.000Z,1018.7307119999999
2022-11-27T01:59:36.000Z,1018.7307119999999
2022-11-27T02:00:03.000Z,1018.5275280000001
2022-11-27T02:00:38.000Z,1018.5275280000001
2022-11-27T02:01:02.000Z,1018.4259360000001
2022-11-27T02:01:28.000Z,1018.4259360000001
2022-11-27T02:02:08.000Z,1018.5275280000001
2022-11-27T02:02:31.000Z,1018.5275280000001
2022-11-27T02:03:03.000Z,1018.5275280000001
2022-11-27T02:03:33.000Z,1018.5275280000001
2022-11-27T02:04:03.000Z,1018.4259360000001
2022-11-27T02:04:39.000Z,1018.4259360000001
2022-11-27T02:05:00.000Z,1018.4259360000001
2022-11-27T02:05:23.000Z,1018.4259360000001
2022-11-27T02:05:58.000Z,1018.4259360000001
2022-11-27T02:06:28.000Z,1018.7307119999999
2022-11-27T02:07:03.000Z,1018.324344
2022-11-27T02:07:33.000Z,1018.324344
2022-11-27T02:08:03.000Z,1018.62912
2022-11-27T02:08:38.000Z,1018.62912
2022-11-27T02:09:00.000Z,1018.5275280000001
2022-11-27T02:09:28.000Z,1018.5275280000001
2022-11-27T02:10:08.000Z,1018.62912
2022-11-27T02:10:31.000Z,1018.62912
2022-11-27T02:10:58.000Z,1018.5275280000001
2022-11-27T02:11:28.000Z,1018.5275280000001
2022-11-27T02:11:58.000Z,1018.5275280000001
2022-11-27T02:12:23.000Z,1018.324344
2022-11-27T02:12:53.000Z,1018.324344
2022-11-27T02:13:23.000Z,1018.62912
2022-11-27T02:13:59.000Z,1018.62912
2022-11-27T02:14:28.000Z,1018.324344
2022-11-27T02:15:03.000Z,1018.324344
2022-11-27T02:15:33.000Z,1018.324344
2022-11-27T02:16:03.000Z,1018.5275280000001
2022-11-27T02:16:38.000Z,1018.5275280000001
2022-11-27T02:17:00.000Z,1018.5275280000001
2022-11-27T02:17:23.000Z,1018.5275280000001
2022-11-27T02:17:58.000Z,1018.5275280000001
2022-11-27T02:18:28.000Z,1018.5275280000001
2022-11-27T02:19:03.000Z,1018.324344
2022-11-27T02:19:33.000Z,1018.324344
2022-11-27T02:20:03.000Z,1018.324344
2022-11-27T02:20:39.000Z,1018.324344
2022-11-27T02:21:00.000Z,1018.2227520000001
2022-11-27T02:21:23.000Z,1018.2227520000001
2022-11-27T02:21:58.000Z,1018.2227520000001
2022-11-27T02:22:28.000Z,1018.324344
2022-11-27T02:23:03.000Z,1018.2227520000001
2022-11-27T02:23:33.000Z,1018.2227520000001
2022-11-27T02:24:03.000Z,1018.2227520000001
2022-11-27T02:24:39.000Z,1018.2227520000001
2022-11-27T02:25:01.000Z,1018.019568
2022-11-27T02:25:28.000Z,1018.019568
2022-11-27T02:25:58.000Z,1018.019568
2022-11-27T02:26:28.000Z,1018.12116
2022-11-27T02:27:04.000Z,1018.324344
2022-11-27T02:27:33.000Z,1018.324344
2022-11-27T02:28:03.000Z,1018.019568
2022-11-27T02:28:38.000Z,1018.019568
2022-11-27T02:29:00.000Z,1018.12116
2022-11-27T02:29:23.000Z,1018.12116
2022-11-27T02:29:58.000Z,1018.12116
2022-11-27T02:30:28.000Z,1018.12116
2022-11-27T02:31:03.000Z,1018.12116
2022-11-27T02:31:33.000Z,1018.12116
2022-11-27T02:31:58.000Z,1018.019568
2022-11-27T02:32:24.000Z,1018.019568
2022-11-27T02:32:50.000Z,1018.019568
2022-11-27T02:33:18.000Z,1018.2227520000001
2022-11-27T02:33:44.000Z,1018.2227520000001
2022-11-27T02:34:08.000Z,1018.2227520000001
2022-11-27T02:34:31.000Z,1018.2227520000001
2022-11-27T02:34:58.000Z,1018.019568
2022-11-27T02:35:30.000Z,1018.019568
2022-11-27T02:35:58.000Z,1018.019568
2022-11-27T02:36:24.000Z,1018.2227520000001
2022-11-27T02:36:53.000Z,1018.2227520000001
2022-11-27T02:37:23.000Z,1018.019568
2022-11-27T02:37:58.000Z,1018.019568
2022-11-27T02:38:28.000Z,1018.019568
2022-11-27T02:39:03.000Z,1017.9179760000001
2022-11-27T02:39:33.000Z,1017.9179760000001
2022-11-27T02:40:03.000Z,1017.9179760000001
2022-11-27T02:40:38.000Z,1017.9179760000001
2022-11-27T02:41:00.000Z,1018.019568
2022-11-27T02:41:23.000Z,1018.019568
2022-11-27T02:41:58.000Z,1018.019568
2022-11-27T02:42:28.000Z,1018.12116
2022-11-27T02:43:03.000Z,1018.12116
2022-11-27T02:43:30.000Z,1018.12116
2022-11-27T02:43:58.000Z,1018.12116
2022-11-27T02:44:23.000Z,1018.12116
2022-11-27T02:44:53.000Z,1018.12116
2022-11-27T02:45:23.000Z,1017.9179760000001
2022-11-27T02:45:58.000Z,1017.9179760000001
2022-11-27T02:46:28.000Z,1017.9179760000001
2022-11-27T02:47:03.000Z,1018.12116
2022-11-27T02:47:33.000Z,1018.12116
2022-11-27T02:48:03.000Z,1017.9179760000001
2022-11-27T02:48:39.000Z,1017.9179760000001
2022-11-27T02:49:00.000Z,1017.8163840000001
2022-11-27T02:49:23.000Z,1017.8163840000001
2022-11-27T02:49:58.000Z,1017.8163840000001
2022-11-27T02:50:28.000Z,1017.714792
2022-11-27T02:51:13.000Z,1018.12116
2022-11-27T02:51:34.000Z,1018.12116
2022-11-27T02:52:03.000Z,1017.9179760000001
2022-11-27T02:52:38.000Z,1017.9179760000001
2022-11-27T02:53:00.000Z,1017.9179760000001
2022-11-27T02:53:23.000Z,1017.9179760000001
2022-11-27T02:53:58.000Z,1017.9179760000001
2022-11-27T02:54:28.000Z,1017.9179760000001
2022-11-27T02:55:03.000Z,1017.8163840000001
2022-11-27T02:55:33.000Z,1017.8163840000001
2022-11-27T02:56:03.000Z,1017.8163840000001
2022-11-27T02:56:38.000Z,1017.8163840000001
2022-11-27T02:57:00.000Z,1017.714792
2022-11-27T02:57:23.000Z,1017.714792
2022-11-27T02:57:54.000Z,1017.714792
2022-11-27T02:58:19.000Z,1017.6132000000001
2022-11-27T02:58:43.000Z,1017.6132000000001
2022-11-27T02:59:18.000Z,1017.5454719999999
2022-11-27T02:59:48.000Z,1017.5454719999999
2022-11-27T03:00:18.000Z,1017.714792
2022-11-27T03:00:53.000Z,1017.714792
2022-11-27T03:01:23.000Z,1017.6132000000001
2022-11-27T03:02:00.000Z,1017.6132000000001
2022-11-27T03:02:28.000Z,1017.6132000000001
2022-11-27T03:03:03.000Z,1017.6132000000001
2022-11-27T03:03:33.000Z,1017.6132000000001
2022-11-27T03:04:03.000Z,1017.6132000000001
2022-11-27T03:04:38.000Z,1017.6132000000001
2022-11-27T03:05:03.000Z,1017.6132000000001
2022-11-27T03:05:26.000Z,1017.6132000000001
2022-11-27T03:05:54.000Z,1017.6132000000001
2022-11-27T03:06:19.000Z,1017.6132000000001
2022-11-27T03:06:44.000Z,1017.6132000000001
2022-11-27T03:07:19.000Z,1017.6132000000001
2022-11-27T03:07:48.000Z,1017.6132000000001
2022-11-27T03:08:03.000Z,1017.44388
2022-11-27T03:08:38.000Z,1017.44388
2022-11-27T03:09:00.000Z,1017.342288
2022-11-27T03:09:23.000Z,1017.342288
2022-11-27T03:09:59.000Z,1017.342288
2022-11-27T03:10:28.000Z,1017.5454719999999
2022-11-27T03:11:03.000Z,1017.44388
2022-11-27T03:11:33.000Z,1017.44388
2022-11-27T03:12:03.000Z,1017.5454719999999
2022-11-27T03:12:38.000Z,1017.5454719999999
2022-11-27T03:13:00.000Z,1017.5454719999999
2022-11-27T03:13:33.000Z,1017.5454719999999
2022-11-27T03:13:59.000Z,1017.5454719999999
2022-11-27T03:14:26.000Z,1017.5454719999999
2022-11-27T03:15:03.000Z,1017.44388
2022-11-27T03:15:30.000Z,1017.44388
2022-11-27T03:15:58.000Z,1017.44388
2022-11-27T03:16:25.000Z,1017.44388
2022-11-27T03:16:50.000Z,1017.44388
2022-11-27T03:17:28.000Z,1017.44388
2022-11-27T03:18:08.000Z,1017.342288
2022-11-27T03:18:31.000Z,1017.342288
2022-11-27T03:19:04.000Z,1017.6132000000001
2022-11-27T03:19:33.000Z,1017.6132000000001
2022-11-27T03:20:03.000Z,1017.342288
2022-11-27T03:20:38.000Z,1017.342288
2022-11-27T03:21:00.000Z,1017.44388
2022-11-27T03:21:38.000Z,1017.44388
2022-11-27T03:21:58.000Z,1017.44388
2022-11-27T03:22:28.000Z,1017.342288
2022-11-27T03:23:03.000Z,1017.342288
2022-11-27T03:23:33.000Z,1017.342288
2022-11-27T03:24:03.000Z,1017.342288
2022-11-27T03:24:38.000Z,1017.342288
2022-11-27T03:25:00.000Z,1017.44388
2022-11-27T03:25:33.000Z,1017.44388
2022-11-27T03:25:59.000Z,1017.44388
2022-11-27T03:26:26.000Z,1017.1391040000001
2022-11-27T03:26:53.000Z,1017.1391040000001
2022-11-27T03:27:18.000Z,1017.240696
2022-11-27T03:27:48.000Z,1017.240696
2022-11-27T03:28:18.000Z,1017.342288
2022-11-27T03:28:39.000Z,1017.342288
2022-11-27T03:29:00.000Z,1017.342288
2022-11-27T03:29:23.000Z,1017.342288
2022-11-27T03:29:58.000Z,1017.342288
2022-11-27T03:30:28.000Z,1017.5454719999999
2022-11-27T03:31:04.000Z,1017.342288
2022-11-27T03:31:33.000Z,1017.342288
2022-11-27T03:32:03.000Z,1017.342288
2022-11-27T03:32:38.000Z,1017.342288
2022-11-27T03:33:00.000Z,1017.1391040000001
2022-11-27T03:33:33.000Z,1017.1391040000001
2022-11-27T03:33:58.000Z,1017.1391040000001
2022-11-27T03:34:28.000Z,1017.44388
2022-11-27T03:35:03.000Z,1017.44388
2022-11-27T03:35:46.000Z,1017.44388
2022-11-27T03:36:04.000Z,1017.342288
2022-11-27T03:36:38.000Z,1017.342288
2022-11-27T03:37:00.000Z,1017.240696
2022-11-27T03:37:23.000Z,1017.240696
2022-11-27T03:37:58.000Z,1017.240696
2022-11-27T03:38:28.000Z,1017.240696
2022-11-27T03:39:03.000Z,1017.240696
2022-11-27T03:39:33.000Z,1017.240696
2022-11-27T03:40:03.000Z,1017.1391040000001
2022-11-27T03:40:48.000Z,1017.1391040000001
2022-11-27T03:41:18.000Z,1017.240696
2022-11-27T03:41:45.000Z,1017.240696
2022-11-27T03:42:13.000Z,1017.342288
2022-11-27T03:42:48.000Z,1017.342288
2022-11-27T03:43:19.000Z,1017.240696
2022-11-27T03:43:46.000Z,1017.240696
2022-11-27T03:44:03.000Z,1017.1391040000001
2022-11-27T03:44:38.000Z,1017.1391040000001
2022-11-27T03:45:01.000Z,1017.342288
2022-11-27T03:45:28.000Z,1017.342288
2022-11-27T03:46:08.000Z,1017.240696
2022-11-27T03:46:31.000Z,1017.240696
2022-11-27T03:46:58.000Z,1017.240696
2022-11-27T03:47:18.000Z,1017.240696
2022-11-27T03:47:48.000Z,1017.240696
2022-11-27T03:48:18.000Z,1017.1391040000001
2022-11-27T03:48:39.000Z,1017.1391040000001
2022-11-27T03:49:00.000Z,1017.1391040000001
2022-11-27T03:49:23.000Z,1017.1391040000001
2022-11-27T03:49:58.000Z,1017.1391040000001
2022-11-27T03:50:28.000Z,1017.1391040000001
2022-11-27T03:51:03.000Z,1017.342288
2022-11-27T03:51:33.000Z,1017.342288
2022-11-27T03:52:03.000Z,1017.342288
2022-11-27T03:52:38.000Z,1017.342288
2022-11-27T03:53:00.000Z,1017.342288
2022-11-27T03:53:33.000Z,1017.342288
2022-11-27T03:54:00.000Z,1017.342288
2022-11-27T03:54:26.000Z,1017.240696
2022-11-27T03:54:53.000Z,1017.240696
2022-11-27T03:55:18.000Z,1017.1391040000001
2022-11-27T03:55:48.000Z,1017.1391040000001
2022-11-27T03:56:19.000Z,1017.342288
2022-11-27T03:56:38.000Z,1017.342288
2022-11-27T03:57:00.000Z,1017.342288
2022-11-27T03:57:23.000Z,1017.342288
2022-11-27T03:57:58.000Z,1017.342288
2022-11-27T03:58:28.000Z,1017.1391040000001
2022-11-27T03:59:03.000Z,1017.5454719999999
2022-11-27T03:59:33.000Z,1017.5454719999999
2022-11-27T04:00:04.000Z,1017.44388
2022-11-27T04:00:39.000Z,1017.44388
2022-11-27T04:01:00.000Z,1017.240696
2022-11-27T04:01:33.000Z,1017.240696
2022-11-27T04:01:58.000Z,1017.240696
2022-11-27T04:02:28.000Z,1017.037512
2022-11-27T04:03:03.000Z,1017.44388
2022-11-27T04:03:33.000Z,1017.44388
2022-11-27T04:04:03.000Z,1017.240696
2022-11-27T04:04:38.000Z,1017.240696
2022-11-27T04:05:00.000Z,1017.342288
2022-11-27T04:05:23.000Z,1017.342288
2022-11-27T04:05:58.000Z,1017.342288
2022-11-27T04:06:28.000Z,1017.037512
2022-11-27T04:07:03.000Z,1017.037512
2022-11-27T04:07:33.000Z,1017.037512
2022-11-27T04:08:03.000Z,1017.1391040000001
2022-11-27T04:08:48.000Z,1017.1391040000001
2022-11-27T04:09:18.000Z,1017.037512
2022-11-27T04:09:45.000Z,1017.037512
2022-11-27T04:10:08.000Z,1017.240696
2022-11-27T04:10:31.000Z,1017.240696
2022-11-27T04:10:58.000Z,1017.240696
2022-11-27T04:11:30.000Z,1017.240696
2022-11-27T04:11:58.000Z,1017.240696
2022-11-27T04:12:24.000Z,1017.342288
2022-11-27T04:12:50.000Z,1017.342288
2022-11-27T04:13:22.000Z,1017.240696
2022-11-27T04:13:48.000Z,1017.240696
2022-11-27T04:14:15.000Z,1017.1391040000001
2022-11-27T04:14:48.000Z,1017.1391040000001
2022-11-27T04:15:19.000Z,1017.1391040000001
2022-11-27T04:15:48.000Z,1017.1391040000001
2022-11-27T04:16:18.000Z,1017.1391040000001
2022-11-27T04:16:53.000Z,1017.1391040000001
2022-11-27T04:17:23.000Z,1017.1391040000001
2022-11-27T04:17:58.000Z,1017.1391040000001
2022-11-27T04:18:28.000Z,1017.037512
2022-11-27T04:18:58.000Z,1017.1391040000001
2022-11-27T04:19:33.000Z,1017.1391040000001
2022-11-27T04:20:03.000Z,1016.834328
2022-11-27T04:20:38.000Z,1016.834328
2022-11-27T04:21:00.000Z,1017.037512
2022-11-27T04:21:23.000Z,1017.037512
2022-11-27T04:22:08.000Z,1017.1391040000001
2022-11-27T04:22:31.000Z,1017.1391040000001
2022-11-27T04:22:58.000Z,1017.1391040000001
2022-11-27T04:23:33.000Z,1017.037512
2022-11-27T04:24:03.000Z,1017.037512
2022-11-27T04:24:39.000Z,1017.037512
2022-11-27T04:25:00.000Z,1016.93592
2022-11-27T04:25:24.000Z,1016.93592
2022-11-27T04:25:59.000Z,1016.93592
2022-11-27T04:26:28.000Z,1017.1391040000001
2022-11-27T04:27:03.000Z,1017.1391040000001
2022-11-27T04:27:34.000Z,1017.1391040000001
2022-11-27T04:28:03.000Z,1017.1391040000001
2022-11-27T04:28:38.000Z,1017.1391040000001
2022-11-27T04:29:00.000Z,1017.1391040000001
2022-11-27T04:29:23.000Z,1017.1391040000001
2022-11-27T04:30:08.000Z,1016.93592
2022-11-27T04:30:28.000Z,1016.93592
2022-11-27T04:31:03.000Z,1017.037512
2022-11-27T04:31:34.000Z,1017.037512
2022-11-27T04:32:03.000Z,1017.037512
2022-11-27T04:32:38.000Z,1017.037512
2022-11-27T04:33:00.000Z,1016.93592
2022-11-27T04:33:23.000Z,1016.93592
2022-11-27T04:33:58.000Z,1016.93592
2022-11-27T04:34:28.000Z,1017.037512
2022-11-27T04:34:58.000Z,1016.93592
2022-11-27T04:35:14.000Z,1016.93592
2022-11-27T04:35:33.000Z,1016.93592
2022-11-27T04:36:03.000Z,1017.1391040000001
2022-11-27T04:36:38.000Z,1017.1391040000001
2022-11-27T04:37:03.000Z,1017.1391040000001
2022-11-27T04:37:26.000Z,1017.1391040000001
2022-11-27T04:37:54.000Z,1017.1391040000001
2022-11-27T04:38:10.000Z,1016.834328
2022-11-27T04:38:28.000Z,1016.834328
2022-11-27T04:39:03.000Z,1016.834328
2022-11-27T04:39:33.000Z,1016.93592
2022-11-27T04:40:03.000Z,1017.1391040000001
2022-11-27T04:40:39.000Z,1017.1391040000001
2022-11-27T04:41:00.000Z,1016.93592
2022-11-27T04:41:23.000Z,1016.93592
2022-11-27T04:41:58.000Z,1016.93592
2022-11-27T04:42:28.000Z,1016.834328
2022-11-27T04:43:03.000Z,1016.834328
2022-11-27T04:43:33.000Z,1016.834328
2022-11-27T04:44:03.000Z,1017.240696
2022-11-27T04:44:38.000Z,1017.240696
2022-11-27T04:45:03.000Z,1016.93592
2022-11-27T04:45:26.000Z,1016.93592
2022-11-27T04:45:54.000Z,1016.93592
2022-11-27T04:46:19.000Z,1016.93592
2022-11-27T04:46:43.000Z,1016.93592
2022-11-27T04:47:18.000Z,1016.631144
2022-11-27T04:47:48.000Z,1016.631144
2022-11-27T04:48:18.000Z,1016.834328
2022-11-27T04:48:38.000Z,1016.834328
2022-11-27T04:49:00.000Z,1016.834328
2022-11-27T04:49:23.000Z,1016.834328
2022-11-27T04:49:58.000Z,1016.834328
2022-11-27T04:50:28.000Z,1016.732736
2022-11-27T04:50:58.000Z,1016.834328
2022-11-27T04:51:14.000Z,1016.834328
2022-11-27T04:51:33.000Z,1016.834328
2022-11-27T04:52:03.000Z,1016.732736
2022-11-27T04:52:38.000Z,1016.732736
2022-11-27T04:53:00.000Z,1016.631144
2022-11-27T04:53:28.000Z,1016.631144